sensor_id;sensor_type;location;lat;lon;timestamp;temperature;humidity
12254;DHT22;6189;52.526;13.390;2023-06-24T00:00:51;21.90;99.90
12254;DHT22;6189;52.526;13.390;2023-06-24T00:03:37;22.00;99.90
12254;DHT22;6189;52.526;13.390;2023-06-24T00:06:22;22.00;99.90
12254;DHT22;6189;52.526;13.390;2023-06-24T00:09:10;22.10;99.90
12254;DHT22;6189;52.526;13.390;2023-06-24T00:11:55;22.10;99.90
12254;DHT22;6189;52.526;13.390;2023-06-24T00:14:41;22.20;99.90
12254;DHT22;6189;52.526;13.390;2023-06-24T00:17:27;22.20;99.90
12254;DHT22;6189;52.526;13.390;2023-06-24T00:20:13;22.20;99.90
12254;DHT22;6189;52.526;13.390;2023-06-24T00:22:58;22.10;99.90
12254;DHT22;6189;52.526;13.390;2023-06-24T00:25:43;22.10;99.90
12254;DHT22;6189;52.526;13.390;2023-06-24T00:28:29;22.10;99.90
12254;DHT22;6189;52.526;13.390;2023-06-24T00:31:15;22.00;99.90
12254;DHT22;6189;52.526;13.390;2023-06-24T00:34:01;22.10;99.90
12254;DHT22;6189;52.526;13.390;2023-06-24T00:36:46;22.10;99.90
12254;DHT22;6189;52.526;13.390;2023-06-24T00:39:31;22.10;99.90
12254;DHT22;6189;52.526;13.390;2023-06-24T00:42:17;22.00;99.90
12254;DHT22;6189;52.526;13.390;2023-06-24T00:45:03;21.80;99.90
12254;DHT22;6189;52.526;13.390;2023-06-24T00:47:50;21.80;99.90
12254;DHT22;6189;52.526;13.390;2023-06-24T00:50:36;21.90;99.90
12254;DHT22;6189;52.526;13.390;2023-06-24T00:53:25;22.00;99.90
12254;DHT22;6189;52.526;13.390;2023-06-24T00:56:11;22.10;99.90
12254;DHT22;6189;52.526;13.390;2023-06-24T00:58:58;21.40;99.90
12254;DHT22;6189;52.526;13.390;2023-06-24T01:01:45;21.50;99.90
12254;DHT22;6189;52.526;13.390;2023-06-24T01:04:32;20.90;99.90
12254;DHT22;6189;52.526;13.390;2023-06-24T01:07:18;21.00;99.90
12254;DHT22;6189;52.526;13.390;2023-06-24T01:10:04;21.20;99.90
12254;DHT22;6189;52.526;13.390;2023-06-24T01:12:50;20.70;99.90
12254;DHT22;6189;52.526;13.390;2023-06-24T01:15:35;21.00;99.90
12254;DHT22;6189;52.526;13.390;2023-06-24T01:18:23;21.10;99.90
12254;DHT22;6189;52.526;13.390;2023-06-24T01:21:14;21.40;99.90
12254;DHT22;6189;52.526;13.390;2023-06-24T01:33:14;21.60;99.90
12254;DHT22;6189;52.526;13.390;2023-06-24T01:36:01;21.70;99.90
12254;DHT22;6189;52.526;13.390;2023-06-24T01:38:51;21.30;99.90
12254;DHT22;6189;52.526;13.390;2023-06-24T01:41:39;21.00;99.90
12254;DHT22;6189;52.526;13.390;2023-06-24T01:44:25;21.30;99.90
12254;DHT22;6189;52.526;13.390;2023-06-24T01:47:12;21.50;99.90
12254;DHT22;6189;52.526;13.390;2023-06-24T01:50:01;21.50;99.90
12254;DHT22;6189;52.526;13.390;2023-06-24T01:52:47;21.10;99.90
12254;DHT22;6189;52.526;13.390;2023-06-24T01:55:35;21.00;99.90
12254;DHT22;6189;52.526;13.390;2023-06-24T01:58:23;21.20;99.90
12254;DHT22;6189;52.526;13.390;2023-06-24T02:01:08;21.30;99.90
12254;DHT22;6189;52.526;13.390;2023-06-24T02:03:53;21.30;99.90
12254;DHT22;6189;52.526;13.390;2023-06-24T02:06:41;21.20;99.90
12254;DHT22;6189;52.526;13.390;2023-06-24T02:09:27;21.20;99.90
12254;DHT22;6189;52.526;13.390;2023-06-24T02:12:14;20.70;99.90
12254;DHT22;6189;52.526;13.390;2023-06-24T02:15:00;20.90;99.90
12254;DHT22;6189;52.526;13.390;2023-06-24T02:17:48;21.00;99.90
12254;DHT22;6189;52.526;13.390;2023-06-24T02:20:35;20.90;99.90
12254;DHT22;6189;52.526;13.390;2023-06-24T02:23:24;21.10;99.90
12254;DHT22;6189;52.526;13.390;2023-06-24T02:26:10;20.70;99.90
12254;DHT22;6189;52.526;13.390;2023-06-24T02:28:56;21.10;99.90
12254;DHT22;6189;52.526;13.390;2023-06-24T02:31:42;19.80;99.90
12254;DHT22;6189;52.526;13.390;2023-06-24T02:34:27;20.20;99.90
12254;DHT22;6189;52.526;13.390;2023-06-24T02:37:13;20.70;99.90
12254;DHT22;6189;52.526;13.390;2023-06-24T02:40:00;20.70;99.90
12254;DHT22;6189;52.526;13.390;2023-06-24T02:42:46;20.90;99.90
12254;DHT22;6189;52.526;13.390;2023-06-24T02:45:31;20.20;99.90
12254;DHT22;6189;52.526;13.390;2023-06-24T02:48:17;20.00;99.90
12254;DHT22;6189;52.526;13.390;2023-06-24T02:51:03;20.40;99.90
12254;DHT22;6189;52.526;13.390;2023-06-24T02:53:49;20.00;99.90
12254;DHT22;6189;52.526;13.390;2023-06-24T02:56:36;20.30;99.90
12254;DHT22;6189;52.526;13.390;2023-06-24T02:59:25;19.90;99.90
12254;DHT22;6189;52.526;13.390;2023-06-24T03:02:11;20.30;99.90
12254;DHT22;6189;52.526;13.390;2023-06-24T03:04:56;20.70;99.90
12254;DHT22;6189;52.526;13.390;2023-06-24T03:07:42;20.90;99.90
12254;DHT22;6189;52.526;13.390;2023-06-24T03:10:27;20.50;99.90
12254;DHT22;6189;52.526;13.390;2023-06-24T03:13:14;20.80;99.90
12254;DHT22;6189;52.526;13.390;2023-06-24T03:16:00;21.00;99.90
12254;DHT22;6189;52.526;13.390;2023-06-24T03:18:45;20.50;99.90
12254;DHT22;6189;52.526;13.390;2023-06-24T03:21:30;20.50;99.90
12254;DHT22;6189;52.526;13.390;2023-06-24T03:24:15;20.50;99.90
12254;DHT22;6189;52.526;13.390;2023-06-24T03:27:01;20.80;99.90
12254;DHT22;6189;52.526;13.390;2023-06-24T03:29:47;20.80;99.90
12254;DHT22;6189;52.526;13.390;2023-06-24T03:32:32;20.20;99.90
12254;DHT22;6189;52.526;13.390;2023-06-24T03:35:20;20.50;99.90
12254;DHT22;6189;52.526;13.390;2023-06-24T03:38:06;20.70;99.90
12254;DHT22;6189;52.526;13.390;2023-06-24T03:40:51;20.60;99.90
12254;DHT22;6189;52.526;13.390;2023-06-24T03:43:36;19.90;99.90
12254;DHT22;6189;52.526;13.390;2023-06-24T03:46:23;20.00;99.90
12254;DHT22;6189;52.526;13.390;2023-06-24T03:49:09;20.30;99.90
12254;DHT22;6189;52.526;13.390;2023-06-24T03:51:54;20.50;99.90
12254;DHT22;6189;52.526;13.390;2023-06-24T03:54:40;20.70;99.90
12254;DHT22;6189;52.526;13.390;2023-06-24T03:57:25;20.70;99.90
12254;DHT22;6189;52.526;13.390;2023-06-24T04:00:10;20.50;99.90
12254;DHT22;6189;52.526;13.390;2023-06-24T04:02:58;20.50;99.90
12254;DHT22;6189;52.526;13.390;2023-06-24T04:05:44;20.20;99.90
12254;DHT22;6189;52.526;13.390;2023-06-24T04:08:30;20.50;99.90
12254;DHT22;6189;52.526;13.390;2023-06-24T04:11:15;20.60;99.90
12254;DHT22;6189;52.526;13.390;2023-06-24T04:14:00;20.60;99.90
12254;DHT22;6189;52.526;13.390;2023-06-24T04:16:46;20.20;99.90
12254;DHT22;6189;52.526;13.390;2023-06-24T04:19:32;20.00;99.90
12254;DHT22;6189;52.526;13.390;2023-06-24T04:22:18;19.50;99.90
12254;DHT22;6189;52.526;13.390;2023-06-24T04:25:04;19.90;99.90
12254;DHT22;6189;52.526;13.390;2023-06-24T04:27:49;20.10;99.90
12254;DHT22;6189;52.526;13.390;2023-06-24T04:30:34;19.90;99.90
12254;DHT22;6189;52.526;13.390;2023-06-24T04:33:22;20.00;99.90
12254;DHT22;6189;52.526;13.390;2023-06-24T04:36:10;19.60;99.90
12254;DHT22;6189;52.526;13.390;2023-06-24T04:38:55;19.10;99.90
12254;DHT22;6189;52.526;13.390;2023-06-24T04:41:41;19.50;99.90
12254;DHT22;6189;52.526;13.390;2023-06-24T04:44:26;20.00;99.90
12254;DHT22;6189;52.526;13.390;2023-06-24T04:47:12;19.70;99.90
12254;DHT22;6189;52.526;13.390;2023-06-24T04:49:57;19.30;99.90
12254;DHT22;6189;52.526;13.390;2023-06-24T04:52:44;18.90;99.90
12254;DHT22;6189;52.526;13.390;2023-06-24T04:55:29;19.50;99.90
12254;DHT22;6189;52.526;13.390;2023-06-24T04:58:15;19.20;99.90
12254;DHT22;6189;52.526;13.390;2023-06-24T05:01:00;19.60;99.90
12254;DHT22;6189;52.526;13.390;2023-06-24T05:03:46;19.80;99.90
12254;DHT22;6189;52.526;13.390;2023-06-24T05:06:32;19.80;99.90
12254;DHT22;6189;52.526;13.390;2023-06-24T05:09:18;20.00;99.90
12254;DHT22;6189;52.526;13.390;2023-06-24T05:12:04;19.60;99.90
12254;DHT22;6189;52.526;13.390;2023-06-24T05:14:50;19.60;99.90
12254;DHT22;6189;52.526;13.390;2023-06-24T05:17:36;19.90;99.90
12254;DHT22;6189;52.526;13.390;2023-06-24T05:20:21;19.80;99.90
12254;DHT22;6189;52.526;13.390;2023-06-24T05:23:07;20.10;99.90
12254;DHT22;6189;52.526;13.390;2023-06-24T05:25:53;19.90;99.90
12254;DHT22;6189;52.526;13.390;2023-06-24T05:28:38;20.30;99.90
12254;DHT22;6189;52.526;13.390;2023-06-24T05:31:24;20.40;99.90
12254;DHT22;6189;52.526;13.390;2023-06-24T05:34:09;19.40;99.90
12254;DHT22;6189;52.526;13.390;2023-06-24T05:36:54;19.80;99.90
12254;DHT22;6189;52.526;13.390;2023-06-24T05:39:40;19.30;99.90
12254;DHT22;6189;52.526;13.390;2023-06-24T05:42:26;19.70;99.90
12254;DHT22;6189;52.526;13.390;2023-06-24T05:45:12;20.10;99.90
12254;DHT22;6189;52.526;13.390;2023-06-24T05:47:57;20.20;99.90
12254;DHT22;6189;52.526;13.390;2023-06-24T05:50:42;19.10;99.90
12254;DHT22;6189;52.526;13.390;2023-06-24T05:53:28;19.50;99.90
12254;DHT22;6189;52.526;13.390;2023-06-24T05:56:13;20.10;99.90
12254;DHT22;6189;52.526;13.390;2023-06-24T05:59:00;20.40;99.90
12254;DHT22;6189;52.526;13.390;2023-06-24T06:01:45;19.30;99.90
12254;DHT22;6189;52.526;13.390;2023-06-24T06:04:31;19.10;99.90
12254;DHT22;6189;52.526;13.390;2023-06-24T06:07:16;19.20;99.90
12254;DHT22;6189;52.526;13.390;2023-06-24T06:10:01;19.40;99.90
12254;DHT22;6189;52.526;13.390;2023-06-24T06:12:47;19.70;99.90
12254;DHT22;6189;52.526;13.390;2023-06-24T06:15:34;19.80;99.90
12254;DHT22;6189;52.526;13.390;2023-06-24T06:18:19;19.30;99.90
12254;DHT22;6189;52.526;13.390;2023-06-24T06:21:05;19.60;99.90
12254;DHT22;6189;52.526;13.390;2023-06-24T06:23:50;19.90;99.90
12254;DHT22;6189;52.526;13.390;2023-06-24T06:26:40;20.40;99.90
12254;DHT22;6189;52.526;13.390;2023-06-24T06:29:25;20.70;99.90
12254;DHT22;6189;52.526;13.390;2023-06-24T06:32:12;20.90;99.90
12254;DHT22;6189;52.526;13.390;2023-06-24T06:34:58;21.10;99.90
12254;DHT22;6189;52.526;13.390;2023-06-24T06:37:43;21.00;99.90
12254;DHT22;6189;52.526;13.390;2023-06-24T06:40:29;21.00;99.90
12254;DHT22;6189;52.526;13.390;2023-06-24T06:43:14;21.10;99.90
12254;DHT22;6189;52.526;13.390;2023-06-24T06:45:59;20.80;99.90
12254;DHT22;6189;52.526;13.390;2023-06-24T06:48:46;21.00;99.90
12254;DHT22;6189;52.526;13.390;2023-06-24T06:51:31;21.20;99.90
12254;DHT22;6189;52.526;13.390;2023-06-24T06:54:18;21.40;99.90
12254;DHT22;6189;52.526;13.390;2023-06-24T06:57:04;21.50;99.90
12254;DHT22;6189;52.526;13.390;2023-06-24T06:59:50;21.60;99.90
12254;DHT22;6189;52.526;13.390;2023-06-24T07:02:35;21.40;99.90
12254;DHT22;6189;52.526;13.390;2023-06-24T07:05:22;21.30;99.90
12254;DHT22;6189;52.526;13.390;2023-06-24T07:08:07;21.30;99.90
12254;DHT22;6189;52.526;13.390;2023-06-24T07:10:52;21.10;99.90
12254;DHT22;6189;52.526;13.390;2023-06-24T07:13:38;21.00;99.90
12254;DHT22;6189;52.526;13.390;2023-06-24T07:16:23;20.90;99.90
12254;DHT22;6189;52.526;13.390;2023-06-24T07:19:08;20.90;99.90
12254;DHT22;6189;52.526;13.390;2023-06-24T07:21:55;21.20;99.90
12254;DHT22;6189;52.526;13.390;2023-06-24T07:24:41;21.50;99.90
12254;DHT22;6189;52.526;13.390;2023-06-24T07:27:26;21.20;99.90
12254;DHT22;6189;52.526;13.390;2023-06-24T07:30:11;21.30;99.90
12254;DHT22;6189;52.526;13.390;2023-06-24T07:32:57;21.10;99.90
12254;DHT22;6189;52.526;13.390;2023-06-24T07:35:42;21.00;99.90
12254;DHT22;6189;52.526;13.390;2023-06-24T07:38:29;21.40;99.90
12254;DHT22;6189;52.526;13.390;2023-06-24T07:41:15;21.20;99.90
12254;DHT22;6189;52.526;13.390;2023-06-24T07:44:00;21.40;99.90
12254;DHT22;6189;52.526;13.390;2023-06-24T07:46:46;21.90;99.90
12254;DHT22;6189;52.526;13.390;2023-06-24T07:49:32;22.00;99.90
12254;DHT22;6189;52.526;13.390;2023-06-24T07:52:17;21.40;99.90
12254;DHT22;6189;52.526;13.390;2023-06-24T07:55:04;21.50;99.90
12254;DHT22;6189;52.526;13.390;2023-06-24T07:57:49;22.00;99.90
12254;DHT22;6189;52.526;13.390;2023-06-24T08:00:35;21.10;99.90
12254;DHT22;6189;52.526;13.390;2023-06-24T08:03:20;21.00;99.90
12254;DHT22;6189;52.526;13.390;2023-06-24T08:06:06;21.30;99.90
12254;DHT22;6189;52.526;13.390;2023-06-24T08:08:52;21.10;99.90
12254;DHT22;6189;52.526;13.390;2023-06-24T08:11:39;21.10;99.90
12254;DHT22;6189;52.526;13.390;2023-06-24T08:14:25;21.20;99.90
12254;DHT22;6189;52.526;13.390;2023-06-24T08:17:10;21.20;99.90
12254;DHT22;6189;52.526;13.390;2023-06-24T08:19:55;21.80;99.90
12254;DHT22;6189;52.526;13.390;2023-06-24T08:22:41;22.10;99.90
12254;DHT22;6189;52.526;13.390;2023-06-24T08:25:26;22.40;99.90
12254;DHT22;6189;52.526;13.390;2023-06-24T08:28:13;22.70;99.90
12254;DHT22;6189;52.526;13.390;2023-06-24T08:30:58;22.70;99.90
12254;DHT22;6189;52.526;13.390;2023-06-24T08:33:44;22.50;99.90
12254;DHT22;6189;52.526;13.390;2023-06-24T08:36:30;22.60;99.90
12254;DHT22;6189;52.526;13.390;2023-06-24T08:39:15;22.20;99.90
12254;DHT22;6189;52.526;13.390;2023-06-24T08:42:00;22.30;99.90
12254;DHT22;6189;52.526;13.390;2023-06-24T08:44:47;22.40;99.90
12254;DHT22;6189;52.526;13.390;2023-06-24T08:47:32;22.80;99.90
12254;DHT22;6189;52.526;13.390;2023-06-24T08:50:18;23.10;99.90
12254;DHT22;6189;52.526;13.390;2023-06-24T08:53:06;22.50;99.90
12254;DHT22;6189;52.526;13.390;2023-06-24T08:55:53;22.50;99.90
12254;DHT22;6189;52.526;13.390;2023-06-24T08:58:39;22.30;99.90
12254;DHT22;6189;52.526;13.390;2023-06-24T09:01:26;22.40;99.90
12254;DHT22;6189;52.526;13.390;2023-06-24T09:04:12;22.40;99.90
12254;DHT22;6189;52.526;13.390;2023-06-24T09:06:57;22.10;99.90
12254;DHT22;6189;52.526;13.390;2023-06-24T09:09:43;22.10;99.90
12254;DHT22;6189;52.526;13.390;2023-06-24T09:12:31;22.60;99.90
12254;DHT22;6189;52.526;13.390;2023-06-24T09:15:16;22.80;99.90
12254;DHT22;6189;52.526;13.390;2023-06-24T09:18:05;23.10;99.90
12254;DHT22;6189;52.526;13.390;2023-06-24T09:20:50;23.10;99.90
12254;DHT22;6189;52.526;13.390;2023-06-24T09:23:36;23.10;99.90
12254;DHT22;6189;52.526;13.390;2023-06-24T09:26:22;23.20;99.90
12254;DHT22;6189;52.526;13.390;2023-06-24T09:29:08;22.30;99.90
12254;DHT22;6189;52.526;13.390;2023-06-24T09:31:53;22.20;99.90
12254;DHT22;6189;52.526;13.390;2023-06-24T09:34:41;22.60;99.90
12254;DHT22;6189;52.526;13.390;2023-06-24T09:37:26;23.30;99.90
12254;DHT22;6189;52.526;13.390;2023-06-24T09:40:15;23.90;99.90
12254;DHT22;6189;52.526;13.390;2023-06-24T09:43:00;24.70;99.90
12254;DHT22;6189;52.526;13.390;2023-06-24T09:45:46;24.40;99.90
12254;DHT22;6189;52.526;13.390;2023-06-24T09:48:34;25.00;98.20
12254;DHT22;6189;52.526;13.390;2023-06-24T09:51:21;24.60;97.30
12254;DHT22;6189;52.526;13.390;2023-06-24T09:54:08;25.50;97.40
12254;DHT22;6189;52.526;13.390;2023-06-24T09:56:53;25.20;95.60
12254;DHT22;6189;52.526;13.390;2023-06-24T09:59:39;25.50;96.80
12254;DHT22;6189;52.526;13.390;2023-06-24T10:02:25;25.60;94.70
12254;DHT22;6189;52.526;13.390;2023-06-24T10:05:10;25.20;93.70
12254;DHT22;6189;52.526;13.390;2023-06-24T10:07:58;25.50;94.40
12254;DHT22;6189;52.526;13.390;2023-06-24T10:10:43;25.30;93.50
12254;DHT22;6189;52.526;13.390;2023-06-24T10:13:29;25.30;92.90
12254;DHT22;6189;52.526;13.390;2023-06-24T10:16:14;25.50;94.20
12254;DHT22;6189;52.526;13.390;2023-06-24T10:19:00;25.50;93.70
12254;DHT22;6189;52.526;13.390;2023-06-24T10:21:47;25.50;93.20
12254;DHT22;6189;52.526;13.390;2023-06-24T10:24:36;25.10;92.80
12254;DHT22;6189;52.526;13.390;2023-06-24T10:27:23;25.40;93.70
12254;DHT22;6189;52.526;13.390;2023-06-24T10:30:16;25.70;94.70
12254;DHT22;6189;52.526;13.390;2023-06-24T10:33:02;26.00;93.80
12254;DHT22;6189;52.526;13.390;2023-06-24T10:35:47;25.70;92.90
12254;DHT22;6189;52.526;13.390;2023-06-24T10:38:32;25.30;92.90
12254;DHT22;6189;52.526;13.390;2023-06-24T10:41:19;25.10;94.00
12254;DHT22;6189;52.526;13.390;2023-06-24T10:44:14;25.20;93.90
12254;DHT22;6189;52.526;13.390;2023-06-24T10:46:59;25.50;94.20
12254;DHT22;6189;52.526;13.390;2023-06-24T10:49:45;25.70;94.20
12254;DHT22;6189;52.526;13.390;2023-06-24T10:52:30;25.60;93.20
12254;DHT22;6189;52.526;13.390;2023-06-24T10:55:16;25.60;92.60
12254;DHT22;6189;52.526;13.390;2023-06-24T10:58:10;25.90;93.60
12254;DHT22;6189;52.526;13.390;2023-06-24T11:01:06;25.30;93.70
12254;DHT22;6189;52.526;13.390;2023-06-24T11:03:51;25.70;93.10
12254;DHT22;6189;52.526;13.390;2023-06-24T11:06:36;26.10;93.00
12254;DHT22;6189;52.526;13.390;2023-06-24T11:09:22;26.50;92.40
12254;DHT22;6189;52.526;13.390;2023-06-24T11:12:08;26.60;91.40
12254;DHT22;6189;52.526;13.390;2023-06-24T11:14:56;27.00;91.60
12254;DHT22;6189;52.526;13.390;2023-06-24T11:17:42;27.30;91.20
12254;DHT22;6189;52.526;13.390;2023-06-24T11:20:27;26.50;89.60
12254;DHT22;6189;52.526;13.390;2023-06-24T11:23:13;26.70;90.10
12254;DHT22;6189;52.526;13.390;2023-06-24T11:25:58;26.40;88.00
12254;DHT22;6189;52.526;13.390;2023-06-24T11:28:47;26.10;90.80
12254;DHT22;6189;52.526;13.390;2023-06-24T11:31:35;26.50;90.60
12254;DHT22;6189;52.526;13.390;2023-06-24T11:34:21;26.80;90.10
12254;DHT22;6189;52.526;13.390;2023-06-24T11:37:10;26.70;90.00
12254;DHT22;6189;52.526;13.390;2023-06-24T11:40:03;26.60;87.50
12254;DHT22;6189;52.526;13.390;2023-06-24T11:42:48;26.20;86.90
12254;DHT22;6189;52.526;13.390;2023-06-24T11:45:35;26.00;87.20
12254;DHT22;6189;52.526;13.390;2023-06-24T11:48:21;26.10;87.40
12254;DHT22;6189;52.526;13.390;2023-06-24T11:51:11;26.50;90.60
12254;DHT22;6189;52.526;13.390;2023-06-24T11:53:58;26.40;85.00
12254;DHT22;6189;52.526;13.390;2023-06-24T11:56:44;26.20;89.80
12254;DHT22;6189;52.526;13.390;2023-06-24T11:59:29;27.00;90.10
12254;DHT22;6189;52.526;13.390;2023-06-24T12:02:16;26.70;84.40
12254;DHT22;6189;52.526;13.390;2023-06-24T12:05:05;26.50;84.40
12254;DHT22;6189;52.526;13.390;2023-06-24T12:07:51;26.60;85.40
12254;DHT22;6189;52.526;13.390;2023-06-24T12:10:37;27.50;85.40
12254;DHT22;6189;52.526;13.390;2023-06-24T12:13:22;27.40;81.30
12254;DHT22;6189;52.526;13.390;2023-06-24T12:16:07;27.60;83.00
12254;DHT22;6189;52.526;13.390;2023-06-24T12:18:53;28.10;82.20
12254;DHT22;6189;52.526;13.390;2023-06-24T12:21:40;28.40;82.80
12254;DHT22;6189;52.526;13.390;2023-06-24T12:24:25;28.70;80.70
12254;DHT22;6189;52.526;13.390;2023-06-24T12:27:10;27.20;82.40
12254;DHT22;6189;52.526;13.390;2023-06-24T12:30:05;27.90;83.70
12254;DHT22;6189;52.526;13.390;2023-06-24T12:32:50;28.40;82.10
12254;DHT22;6189;52.526;13.390;2023-06-24T12:35:36;28.80;83.10
12254;DHT22;6189;52.526;13.390;2023-06-24T12:38:21;27.20;79.80
12254;DHT22;6189;52.526;13.390;2023-06-24T12:41:06;27.40;84.10
12254;DHT22;6189;52.526;13.390;2023-06-24T12:43:51;27.80;80.80
12254;DHT22;6189;52.526;13.390;2023-06-24T12:46:38;28.50;82.20
12254;DHT22;6189;52.526;13.390;2023-06-24T12:49:23;28.90;81.70
12254;DHT22;6189;52.526;13.390;2023-06-24T12:52:08;29.20;78.90
12254;DHT22;6189;52.526;13.390;2023-06-24T12:54:54;29.50;79.30
12254;DHT22;6189;52.526;13.390;2023-06-24T12:57:39;28.50;76.80
12254;DHT22;6189;52.526;13.390;2023-06-24T13:00:24;27.80;78.40
12254;DHT22;6189;52.526;13.390;2023-06-24T13:03:11;28.20;78.40
12254;DHT22;6189;52.526;13.390;2023-06-24T13:05:57;28.60;80.60
12254;DHT22;6189;52.526;13.390;2023-06-24T13:08:42;29.30;82.00
12254;DHT22;6189;52.526;13.390;2023-06-24T13:11:28;29.70;80.50
12254;DHT22;6189;52.526;13.390;2023-06-24T13:14:13;29.90;76.70
12254;DHT22;6189;52.526;13.390;2023-06-24T13:16:59;28.80;74.90
12254;DHT22;6189;52.526;13.390;2023-06-24T13:19:45;28.00;77.20
12254;DHT22;6189;52.526;13.390;2023-06-24T13:22:31;28.90;78.50
12254;DHT22;6189;52.526;13.390;2023-06-24T13:25:16;29.20;73.30
12254;DHT22;6189;52.526;13.390;2023-06-24T13:28:02;29.50;74.80
12254;DHT22;6189;52.526;13.390;2023-06-24T13:30:47;29.40;71.70
12254;DHT22;6189;52.526;13.390;2023-06-24T13:33:32;29.40;73.90
12254;DHT22;6189;52.526;13.390;2023-06-24T13:36:28;29.50;71.80
12254;DHT22;6189;52.526;13.390;2023-06-24T13:39:14;29.50;70.50
12254;DHT22;6189;52.526;13.390;2023-06-24T13:42:00;29.80;72.20
12254;DHT22;6189;52.526;13.390;2023-06-24T13:44:46;29.80;67.70
12254;DHT22;6189;52.526;13.390;2023-06-24T13:47:31;28.10;70.50
12254;DHT22;6189;52.526;13.390;2023-06-24T13:50:16;28.60;73.80
12254;DHT22;6189;52.526;13.390;2023-06-24T13:53:03;29.30;72.20
12254;DHT22;6189;52.526;13.390;2023-06-24T13:55:48;29.60;70.70
12254;DHT22;6189;52.526;13.390;2023-06-24T13:58:35;29.80;70.00
12254;DHT22;6189;52.526;13.390;2023-06-24T14:01:20;29.90;69.20
12254;DHT22;6189;52.526;13.390;2023-06-24T14:04:06;29.70;69.00
12254;DHT22;6189;52.526;13.390;2023-06-24T14:06:51;29.60;69.20
12254;DHT22;6189;52.526;13.390;2023-06-24T14:09:38;29.90;67.10
12254;DHT22;6189;52.526;13.390;2023-06-24T14:12:24;30.00;68.00
12254;DHT22;6189;52.526;13.390;2023-06-24T14:15:09;29.70;66.40
12254;DHT22;6189;52.526;13.390;2023-06-24T14:17:55;29.80;67.90
12254;DHT22;6189;52.526;13.390;2023-06-24T14:20:41;29.20;68.00
12254;DHT22;6189;52.526;13.390;2023-06-24T14:23:27;29.60;69.30
12254;DHT22;6189;52.526;13.390;2023-06-24T14:26:14;29.40;68.40
12254;DHT22;6189;52.526;13.390;2023-06-24T14:29:00;29.20;68.50
12254;DHT22;6189;52.526;13.390;2023-06-24T14:31:45;28.30;68.60
12254;DHT22;6189;52.526;13.390;2023-06-24T14:34:31;28.50;71.20
12254;DHT22;6189;52.526;13.390;2023-06-24T14:37:16;29.10;70.40
12254;DHT22;6189;52.526;13.390;2023-06-24T14:40:01;28.70;68.30
12254;DHT22;6189;52.526;13.390;2023-06-24T14:42:48;29.00;69.30
12254;DHT22;6189;52.526;13.390;2023-06-24T14:45:33;27.80;70.50
12254;DHT22;6189;52.526;13.390;2023-06-24T14:48:19;28.40;70.90
12254;DHT22;6189;52.526;13.390;2023-06-24T14:51:04;28.70;70.40
12254;DHT22;6189;52.526;13.390;2023-06-24T14:53:50;28.20;70.20
12254;DHT22;6189;52.526;13.390;2023-06-24T14:56:35;27.50;72.30
12254;DHT22;6189;52.526;13.390;2023-06-24T14:59:22;27.60;71.30
12254;DHT22;6189;52.526;13.390;2023-06-24T15:02:07;27.40;71.90
12254;DHT22;6189;52.526;13.390;2023-06-24T15:04:52;28.10;72.30
12254;DHT22;6189;52.526;13.390;2023-06-24T15:07:37;27.80;72.00
12254;DHT22;6189;52.526;13.390;2023-06-24T15:10:22;27.30;71.90
12254;DHT22;6189;52.526;13.390;2023-06-24T15:13:08;27.60;73.00
12254;DHT22;6189;52.526;13.390;2023-06-24T15:15:55;27.90;71.50
12254;DHT22;6189;52.526;13.390;2023-06-24T15:18:44;28.30;71.30
12254;DHT22;6189;52.526;13.390;2023-06-24T15:21:29;28.50;70.40
12254;DHT22;6189;52.526;13.390;2023-06-24T15:24:15;28.70;70.50
12254;DHT22;6189;52.526;13.390;2023-06-24T15:27:00;28.80;71.70
12254;DHT22;6189;52.526;13.390;2023-06-24T15:29:45;28.50;70.30
12254;DHT22;6189;52.526;13.390;2023-06-24T15:32:32;28.70;70.10
12254;DHT22;6189;52.526;13.390;2023-06-24T15:35:17;27.40;70.80
12254;DHT22;6189;52.526;13.390;2023-06-24T15:38:02;26.70;73.20
12254;DHT22;6189;52.526;13.390;2023-06-24T15:40:48;27.10;75.00
12254;DHT22;6189;52.526;13.390;2023-06-24T15:43:33;27.10;73.90
12254;DHT22;6189;52.526;13.390;2023-06-24T15:46:18;27.00;75.30
12254;DHT22;6189;52.526;13.390;2023-06-24T15:49:05;27.60;73.90
12254;DHT22;6189;52.526;13.390;2023-06-24T15:51:50;27.60;72.60
12254;DHT22;6189;52.526;13.390;2023-06-24T15:54:35;27.10;73.30
12254;DHT22;6189;52.526;13.390;2023-06-24T15:57:20;27.20;72.60
12254;DHT22;6189;52.526;13.390;2023-06-24T16:00:06;27.40;74.30
12254;DHT22;6189;52.526;13.390;2023-06-24T16:02:51;27.50;72.40
12254;DHT22;6189;52.526;13.390;2023-06-24T16:05:38;27.40;72.30
12254;DHT22;6189;52.526;13.390;2023-06-24T16:08:23;27.20;73.80
12254;DHT22;6189;52.526;13.390;2023-06-24T16:11:10;27.50;74.00
12254;DHT22;6189;52.526;13.390;2023-06-24T16:13:56;27.50;71.80
12254;DHT22;6189;52.526;13.390;2023-06-24T16:16:41;27.40;72.90
12254;DHT22;6189;52.526;13.390;2023-06-24T16:19:26;27.40;72.00
12254;DHT22;6189;52.526;13.390;2023-06-24T16:22:14;26.90;72.70
12254;DHT22;6189;52.526;13.390;2023-06-24T16:24:59;26.40;75.00
12254;DHT22;6189;52.526;13.390;2023-06-24T16:27:45;26.40;74.60
12254;DHT22;6189;52.526;13.390;2023-06-24T16:30:30;26.30;74.40
12254;DHT22;6189;52.526;13.390;2023-06-24T16:33:15;26.30;75.20
12254;DHT22;6189;52.526;13.390;2023-06-24T16:36:00;26.40;74.50
12254;DHT22;6189;52.526;13.390;2023-06-24T16:38:47;26.30;74.40
12254;DHT22;6189;52.526;13.390;2023-06-24T16:41:32;26.30;75.10
12254;DHT22;6189;52.526;13.390;2023-06-24T16:44:17;26.40;75.30
12254;DHT22;6189;52.526;13.390;2023-06-24T16:47:03;26.80;76.60
12254;DHT22;6189;52.526;13.390;2023-06-24T16:49:48;27.30;73.60
12254;DHT22;6189;52.526;13.390;2023-06-24T16:52:34;27.50;73.60
12254;DHT22;6189;52.526;13.390;2023-06-24T16:55:20;27.80;74.80
12254;DHT22;6189;52.526;13.390;2023-06-24T16:58:06;27.40;72.00
12254;DHT22;6189;52.526;13.390;2023-06-24T17:00:51;27.40;73.40
12254;DHT22;6189;52.526;13.390;2023-06-24T17:03:36;27.50;73.30
12254;DHT22;6189;52.526;13.390;2023-06-24T17:06:22;27.20;71.10
12254;DHT22;6189;52.526;13.390;2023-06-24T17:09:07;27.00;73.90
12254;DHT22;6189;52.526;13.390;2023-06-24T17:11:53;27.20;71.20
12254;DHT22;6189;52.526;13.390;2023-06-24T17:14:39;26.70;72.60
12254;DHT22;6189;52.526;13.390;2023-06-24T17:17:24;27.00;74.10
12254;DHT22;6189;52.526;13.390;2023-06-24T17:20:09;26.90;72.90
12254;DHT22;6189;52.526;13.390;2023-06-24T17:22:55;27.20;72.70
12254;DHT22;6189;52.526;13.390;2023-06-24T17:25:41;27.40;72.30
12254;DHT22;6189;52.526;13.390;2023-06-24T17:28:27;27.60;72.00
12254;DHT22;6189;52.526;13.390;2023-06-24T17:31:13;27.40;71.60
12254;DHT22;6189;52.526;13.390;2023-06-24T17:33:58;26.90;72.70
12254;DHT22;6189;52.526;13.390;2023-06-24T17:36:44;27.30;73.70